createdAt,value
2023-01-13T01:08:01.046Z,39.22
2023-01-13T01:09:01.027Z,40.35
2023-01-13T01:10:01.008Z,40.05
2023-01-13T01:11:00.963Z,40.15
2023-01-13T01:12:00.963Z,40.31
2023-01-13T01:13:00.954Z,40.01
2023-01-13T01:14:00.901Z,44.31
2023-01-13T01:15:00.875Z,40.08
2023-01-13T01:16:00.856Z,40.89
2023-01-13T01:17:00.814Z,38.87
2023-01-13T01:18:00.806Z,41.32
2023-01-13T01:19:00.778Z,43.62
2023-01-13T01:20:00.740Z,42.09
2023-01-13T01:21:00.727Z,43.84
2023-01-13T01:22:00.731Z,40.74
2023-01-13T01:23:00.676Z,41.73
2023-01-13T01:24:00.675Z,42.32
2023-01-13T01:25:00.624Z,42.19
2023-01-13T01:26:00.604Z,42.28
2023-01-13T01:27:00.606Z,42.38
2023-01-13T01:28:00.574Z,39.94
2023-01-13T01:29:00.562Z,42.45
2023-01-13T01:30:00.526Z,42.83
2023-01-13T01:31:00.579Z,43.50
2023-01-13T01:32:00.473Z,42.10
2023-01-13T01:33:00.468Z,41.20
2023-01-13T01:34:00.445Z,40.73
2023-01-13T01:35:00.436Z,39.34
2023-01-13T01:36:00.388Z,42.02
2023-01-13T01:37:00.361Z,41.70
2023-01-13T01:38:00.367Z,40.86
2023-01-13T01:39:00.315Z,41.02
2023-01-13T01:40:00.291Z,42.69
2023-01-13T01:41:00.308Z,43.27
2023-01-13T01:42:00.255Z,43.65
2023-01-13T01:43:00.208Z,41.42
2023-01-13T01:44:00.486Z,37.00
2023-01-13T01:45:00.179Z,44.14
2023-01-13T01:46:00.147Z,44.41
2023-01-13T01:47:00.216Z,44.51
2023-01-13T01:48:00.128Z,42.13
2023-01-13T01:49:00.117Z,39.71
2023-01-13T01:50:00.076Z,45.06
2023-01-13T01:51:00.040Z,44.20
2023-01-13T01:52:00.047Z,42.50
2023-01-13T01:53:00.012Z,43.32
2023-01-13T01:53:59.976Z,43.66
2023-01-13T01:54:59.948Z,42.69
2023-01-13T01:55:59.945Z,41.70
2023-01-13T01:56:59.908Z,42.23
2023-01-13T01:57:59.885Z,41.32
2023-01-13T01:58:59.872Z,42.35
2023-01-13T01:59:59.854Z,44.52
2023-01-13T02:00:59.966Z,42.66
2023-01-13T02:01:59.896Z,42.82
2023-01-13T02:02:59.845Z,41.63
2023-01-13T02:03:59.784Z,41.76
2023-01-13T02:04:59.755Z,41.28
2023-01-13T02:05:59.755Z,43.74
2023-01-13T02:06:59.713Z,43.37
2023-01-13T02:07:59.721Z,43.26
2023-01-13T02:08:59.709Z,43.58
2023-01-13T02:09:59.657Z,43.03
2023-01-13T02:10:59.642Z,41.13
2023-01-13T02:11:59.639Z,43.72
2023-01-13T02:12:59.630Z,40.67
2023-01-13T02:13:59.599Z,44.73
2023-01-13T02:14:59.598Z,40.87
2023-01-13T02:15:59.627Z,42.92
2023-01-13T02:16:59.555Z,41.40
2023-01-13T02:17:59.524Z,39.13
2023-01-13T02:18:59.506Z,40.67
2023-01-13T02:19:59.482Z,43.56
2023-01-13T02:20:59.449Z,44.14
2023-01-13T02:21:59.425Z,42.14
2023-01-13T02:22:59.405Z,43.27
2023-01-13T02:23:59.405Z,41.32
2023-01-13T02:24:59.372Z,42.01
2023-01-13T02:25:59.341Z,40.76
2023-01-13T02:26:59.326Z,40.65
2023-01-13T02:27:59.329Z,43.11
2023-01-13T02:28:59.289Z,39.39
2023-01-13T02:29:59.261Z,43.09
2023-01-13T02:30:59.258Z,40.97
2023-01-13T02:31:59.212Z,41.61
2023-01-13T02:32:59.189Z,40.42
2023-01-13T02:33:59.190Z,40.90
2023-01-13T02:34:59.146Z,44.14
2023-01-13T02:35:59.125Z,43.30
2023-01-13T02:36:59.100Z,39.53
2023-01-13T02:37:59.084Z,39.68
2023-01-13T02:38:59.048Z,44.66
2023-01-13T02:39:59.034Z,40.35
2023-01-13T02:40:59.017Z,42.04
2023-01-13T02:41:58.998Z,42.62
2023-01-13T02:42:58.983Z,40.61
2023-01-13T02:43:58.940Z,38.44
2023-01-13T02:44:58.918Z,43.36
2023-01-13T03:02:59.125Z,39.87
2023-01-13T07:18:52.552Z,192.09
2023-01-13T07:50:51.691Z,84.79
2023-01-13T07:51:51.661Z,117.20
2023-01-13T07:52:51.626Z,108.64
2023-01-13T07:53:51.607Z,95.80
2023-01-13T07:54:51.636Z,79.96
2023-01-13T07:55:51.588Z,84.20
2023-01-13T07:56:51.558Z,103.68
2023-01-13T07:57:51.573Z,83.03
2023-01-13T07:58:51.536Z,70.87
2023-01-13T07:59:51.725Z,118.29
2023-01-13T08:00:51.570Z,141.56
2023-01-13T08:01:51.604Z,141.98
2023-01-13T08:02:51.564Z,142.68
2023-01-13T08:30:51.701Z,241.35
2023-01-13T08:31:51.639Z,241.16
2023-01-13T08:51:52.069Z,238.11
2023-01-13T08:52:52.071Z,240.44
2023-01-13T08:53:52.137Z,239.92
2023-01-13T08:54:52.136Z,242.19
2023-01-13T08:55:52.180Z,243.98
2023-01-13T08:56:52.221Z,239.80
2023-01-13T08:57:54.453Z,239.88
2023-01-13T08:58:52.235Z,240.01
2023-01-13T08:59:52.159Z,238.88
2023-01-13T09:00:52.236Z,239.46
2023-01-13T09:01:52.223Z,240.58
2023-01-13T09:02:52.017Z,237.21
2023-01-13T09:03:52.003Z,239.58
2023-01-13T09:04:52.718Z,237.83
2023-01-13T09:05:52.320Z,238.40
2023-01-13T09:06:52.745Z,238.33
2023-01-13T09:07:51.852Z,238.62
2023-01-13T09:08:51.834Z,236.82
2023-01-13T09:09:51.825Z,237.11
2023-01-13T09:10:52.195Z,244.40
2023-01-13T09:11:52.286Z,250.00
2023-01-13T09:12:52.267Z,248.15
2023-01-13T09:13:51.624Z,249.38
2023-01-13T09:14:51.583Z,249.58
2023-01-13T09:15:51.627Z,248.11
2023-01-13T09:16:51.529Z,247.07
2023-01-13T09:17:51.471Z,243.21
2023-01-13T09:18:51.461Z,242.20
2023-01-13T09:19:51.423Z,240.59
2023-01-13T09:20:51.373Z,235.44
2023-01-13T09:21:51.411Z,235.56
2023-01-13T09:22:51.316Z,236.61
2023-01-13T09:23:51.270Z,236.49
2023-01-13T09:24:51.247Z,238.79
2023-01-13T09:25:51.208Z,235.70
2023-01-13T09:26:51.227Z,238.48
2023-01-13T09:27:51.152Z,234.97
2023-01-13T09:28:51.210Z,231.61
2023-01-13T09:29:51.135Z,229.32
2023-01-13T09:30:51.190Z,229.33
2023-01-13T09:31:51.050Z,226.80
2023-01-13T09:32:51.026Z,227.12
2023-01-13T09:33:50.995Z,228.93
2023-01-13T09:34:50.957Z,240.12
2023-01-13T09:35:50.932Z,240.06
2023-01-13T09:36:50.919Z,240.25
2023-01-13T09:37:50.893Z,241.22
2023-01-13T09:38:50.845Z,242.81
2023-01-13T09:39:50.812Z,250.72
2023-01-13T09:40:50.784Z,251.03
2023-01-13T09:41:50.753Z,248.99
2023-01-13T09:42:50.744Z,248.38
2023-01-13T09:43:50.705Z,248.66
2023-01-13T09:44:50.760Z,248.80
2023-01-13T09:45:50.670Z,246.85
2023-01-13T09:46:50.642Z,242.52
2023-01-13T09:47:50.592Z,240.54
2023-01-13T09:48:50.561Z,238.72
2023-01-13T09:49:50.547Z,238.98
2023-01-13T09:50:50.498Z,239.57
2023-01-13T09:51:50.541Z,239.74
2023-01-13T09:52:50.470Z,238.90
2023-01-13T09:53:50.429Z,239.27
2023-01-13T09:54:50.423Z,240.51
2023-01-13T09:55:50.368Z,241.73
2023-01-13T09:56:50.390Z,245.48
2023-01-13T09:57:50.346Z,244.78
2023-01-13T09:58:50.327Z,243.32
2023-01-13T09:59:50.295Z,244.11
2023-01-13T10:00:50.249Z,248.64
2023-01-13T10:01:50.208Z,246.64
2023-01-13T10:02:50.183Z,246.00
2023-01-13T10:03:50.267Z,246.15
2023-01-13T10:04:50.163Z,244.54
2023-01-13T10:05:50.128Z,243.41
2023-01-13T10:06:50.098Z,243.70
2023-01-13T10:07:50.042Z,245.50
2023-01-13T10:08:50.015Z,245.47
2023-01-13T10:09:50.002Z,244.67
2023-01-13T10:10:49.989Z,245.81
2023-01-13T10:11:50.000Z,245.36
2023-01-13T10:12:49.904Z,243.31
2023-01-13T10:13:49.870Z,242.42
2023-01-13T10:14:49.884Z,237.09
2023-01-13T10:15:49.855Z,235.65
2023-01-13T10:16:49.782Z,233.68
2023-01-13T10:17:49.760Z,233.84
2023-01-13T10:18:49.770Z,233.63
2023-01-13T10:19:49.701Z,232.50
2023-01-13T10:20:49.690Z,230.90
2023-01-13T10:21:49.614Z,227.77
2023-01-13T10:22:49.600Z,229.75
2023-01-13T10:23:49.575Z,226.79
2023-01-13T10:24:49.531Z,227.14
2023-01-13T10:25:49.520Z,229.75
2023-01-13T10:26:49.553Z,229.31
2023-01-13T10:27:49.456Z,226.15
2023-01-13T10:28:49.474Z,224.19
2023-01-13T10:29:49.400Z,227.75
2023-01-13T10:30:49.487Z,225.06
2023-01-13T10:31:49.314Z,225.32
2023-01-13T10:32:49.349Z,223.72
2023-01-13T10:33:49.292Z,224.70
2023-01-13T10:34:49.269Z,224.49
2023-01-13T10:35:49.275Z,225.66
2023-01-13T10:36:49.230Z,226.27
2023-01-13T10:37:49.147Z,224.82
2023-01-13T10:38:49.135Z,224.73
2023-01-13T10:39:49.829Z,224.80
2023-01-13T10:40:49.104Z,225.38
2023-01-13T10:41:49.029Z,223.16
2023-01-13T10:42:48.996Z,221.95
2023-01-13T10:43:48.972Z,200.38
2023-01-13T10:44:48.945Z,193.36
2023-01-13T10:45:48.951Z,162.98
